sensor_id;sensor_type;location;lat;lon;timestamp;temperature;humidity
16267;DHT22;8241;48.786;9.250;2023-01-06T00:01:28;11.70;99.90
16267;DHT22;8241;48.786;9.250;2023-01-06T00:03:56;11.80;99.90
16267;DHT22;8241;48.786;9.250;2023-01-06T00:06:25;11.80;99.90
16267;DHT22;8241;48.786;9.250;2023-01-06T00:08:54;11.70;99.90
16267;DHT22;8241;48.786;9.250;2023-01-06T00:11:22;11.50;99.90
16267;DHT22;8241;48.786;9.250;2023-01-06T00:13:53;11.50;99.90
16267;DHT22;8241;48.786;9.250;2023-01-06T00:16:29;11.50;99.90
16267;DHT22;8241;48.786;9.250;2023-01-06T00:18:59;11.40;99.90
16267;DHT22;8241;48.786;9.250;2023-01-06T00:21:27;11.40;99.90
16267;DHT22;8241;48.786;9.250;2023-01-06T00:23:55;11.60;99.90
16267;DHT22;8241;48.786;9.250;2023-01-06T00:26:24;11.50;99.90
16267;DHT22;8241;48.786;9.250;2023-01-06T00:28:51;11.60;99.90
16267;DHT22;8241;48.786;9.250;2023-01-06T00:31:18;11.60;99.90
16267;DHT22;8241;48.786;9.250;2023-01-06T00:33:45;11.70;99.90
16267;DHT22;8241;48.786;9.250;2023-01-06T00:36:13;11.60;99.90
16267;DHT22;8241;48.786;9.250;2023-01-06T00:38:41;11.50;99.90
16267;DHT22;8241;48.786;9.250;2023-01-06T00:41:12;11.50;99.90
16267;DHT22;8241;48.786;9.250;2023-01-06T00:43:55;11.40;99.90
16267;DHT22;8241;48.786;9.250;2023-01-06T00:46:22;11.30;99.90
16267;DHT22;8241;48.786;9.250;2023-01-06T00:48:53;11.30;99.90
16267;DHT22;8241;48.786;9.250;2023-01-06T00:51:26;11.30;99.90
16267;DHT22;8241;48.786;9.250;2023-01-06T00:53:54;11.30;99.90
16267;DHT22;8241;48.786;9.250;2023-01-06T00:56:27;11.40;99.90
16267;DHT22;8241;48.786;9.250;2023-01-06T00:58:54;11.30;99.90
16267;DHT22;8241;48.786;9.250;2023-01-06T01:01:21;11.40;99.90
16267;DHT22;8241;48.786;9.250;2023-01-06T01:03:49;11.30;99.90
16267;DHT22;8241;48.786;9.250;2023-01-06T01:06:19;11.40;99.90
16267;DHT22;8241;48.786;9.250;2023-01-06T01:08:52;11.20;99.90
16267;DHT22;8241;48.786;9.250;2023-01-06T01:11:19;11.10;99.90
16267;DHT22;8241;48.786;9.250;2023-01-06T01:14:01;11.00;99.90
16267;DHT22;8241;48.786;9.250;2023-01-06T01:16:30;10.90;99.90
16267;DHT22;8241;48.786;9.250;2023-01-06T01:18:57;10.90;99.90
16267;DHT22;8241;48.786;9.250;2023-01-06T01:21:24;10.90;99.90
16267;DHT22;8241;48.786;9.250;2023-01-06T01:23:51;11.10;99.90
16267;DHT22;8241;48.786;9.250;2023-01-06T01:26:23;11.30;99.90
16267;DHT22;8241;48.786;9.250;2023-01-06T01:28:51;11.10;99.90
16267;DHT22;8241;48.786;9.250;2023-01-06T01:31:19;11.10;99.90
16267;DHT22;8241;48.786;9.250;2023-01-06T01:33:46;11.30;99.90
16267;DHT22;8241;48.786;9.250;2023-01-06T01:36:16;11.30;99.90
16267;DHT22;8241;48.786;9.250;2023-01-06T01:38:43;11.30;99.90
16267;DHT22;8241;48.786;9.250;2023-01-06T01:41:14;11.10;99.90
16267;DHT22;8241;48.786;9.250;2023-01-06T01:43:46;11.20;99.90
16267;DHT22;8241;48.786;9.250;2023-01-06T01:46:17;11.00;99.90
16267;DHT22;8241;48.786;9.250;2023-01-06T01:48:46;10.90;99.90
16267;DHT22;8241;48.786;9.250;2023-01-06T01:51:17;11.00;99.90
16267;DHT22;8241;48.786;9.250;2023-01-06T01:53:47;11.10;99.90
16267;DHT22;8241;48.786;9.250;2023-01-06T01:56:18;11.10;99.90
16267;DHT22;8241;48.786;9.250;2023-01-06T01:58:52;11.10;99.90
16267;DHT22;8241;48.786;9.250;2023-01-06T02:01:27;11.20;99.90
16267;DHT22;8241;48.786;9.250;2023-01-06T02:03:56;11.00;99.90
16267;DHT22;8241;48.786;9.250;2023-01-06T02:06:25;10.90;99.90
16267;DHT22;8241;48.786;9.250;2023-01-06T02:08:57;11.00;99.90
16267;DHT22;8241;48.786;9.250;2023-01-06T02:11:29;11.00;99.90
16267;DHT22;8241;48.786;9.250;2023-01-06T02:14:04;11.10;99.90
16267;DHT22;8241;48.786;9.250;2023-01-06T02:16:48;11.10;99.90
16267;DHT22;8241;48.786;9.250;2023-01-06T02:19:37;10.90;99.90
16267;DHT22;8241;48.786;9.250;2023-01-06T02:22:23;10.80;99.90
16267;DHT22;8241;48.786;9.250;2023-01-06T02:25:24;10.80;99.90
16267;DHT22;8241;48.786;9.250;2023-01-06T02:28:42;11.00;99.90
16267;DHT22;8241;48.786;9.250;2023-01-06T02:34:18;11.00;99.90
16267;DHT22;8241;48.786;9.250;2023-01-06T02:36:55;11.00;99.90
16267;DHT22;8241;48.786;9.250;2023-01-06T02:39:57;10.90;99.90
16267;DHT22;8241;48.786;9.250;2023-01-06T02:42:39;10.90;99.90
16267;DHT22;8241;48.786;9.250;2023-01-06T02:45:16;10.70;99.90
16267;DHT22;8241;48.786;9.250;2023-01-06T02:47:53;10.90;99.90
16267;DHT22;8241;48.786;9.250;2023-01-06T02:50:30;10.90;99.90
16267;DHT22;8241;48.786;9.250;2023-01-06T02:53:28;10.80;99.90
16267;DHT22;8241;48.786;9.250;2023-01-06T02:55:57;10.60;99.90
16267;DHT22;8241;48.786;9.250;2023-01-06T02:58:28;10.50;99.90
16267;DHT22;8241;48.786;9.250;2023-01-06T03:01:02;10.60;99.90
16267;DHT22;8241;48.786;9.250;2023-01-06T03:03:34;10.70;99.90
16267;DHT22;8241;48.786;9.250;2023-01-06T03:06:05;10.70;99.90
16267;DHT22;8241;48.786;9.250;2023-01-06T03:08:34;10.80;99.90
16267;DHT22;8241;48.786;9.250;2023-01-06T03:11:02;10.90;99.90
16267;DHT22;8241;48.786;9.250;2023-01-06T03:13:35;11.00;99.90
16267;DHT22;8241;48.786;9.250;2023-01-06T03:16:12;10.80;99.90
16267;DHT22;8241;48.786;9.250;2023-01-06T03:18:41;11.00;99.90
16267;DHT22;8241;48.786;9.250;2023-01-06T03:21:14;10.90;99.90
16267;DHT22;8241;48.786;9.250;2023-01-06T03:23:44;11.10;99.90
16267;DHT22;8241;48.786;9.250;2023-01-06T03:26:12;11.10;99.90
16267;DHT22;8241;48.786;9.250;2023-01-06T03:28:42;11.20;99.90
16267;DHT22;8241;48.786;9.250;2023-01-06T03:31:13;11.20;99.90
16267;DHT22;8241;48.786;9.250;2023-01-06T03:33:47;11.20;99.90
16267;DHT22;8241;48.786;9.250;2023-01-06T03:36:24;11.10;99.90
16267;DHT22;8241;48.786;9.250;2023-01-06T03:39:00;11.00;99.90
16267;DHT22;8241;48.786;9.250;2023-01-06T03:41:35;10.90;99.90
16267;DHT22;8241;48.786;9.250;2023-01-06T03:44:28;11.10;99.90
16267;DHT22;8241;48.786;9.250;2023-01-06T03:47:03;10.90;99.90
16267;DHT22;8241;48.786;9.250;2023-01-06T03:49:33;10.70;99.90
16267;DHT22;8241;48.786;9.250;2023-01-06T03:52:11;10.50;99.90
16267;DHT22;8241;48.786;9.250;2023-01-06T03:54:46;10.40;99.90
16267;DHT22;8241;48.786;9.250;2023-01-06T03:57:27;10.30;99.90
16267;DHT22;8241;48.786;9.250;2023-01-06T04:00:00;10.50;99.90
16267;DHT22;8241;48.786;9.250;2023-01-06T04:02:40;10.60;99.90
16267;DHT22;8241;48.786;9.250;2023-01-06T04:05:13;10.50;99.90
16267;DHT22;8241;48.786;9.250;2023-01-06T04:07:44;10.30;99.90
16267;DHT22;8241;48.786;9.250;2023-01-06T04:10:14;10.50;99.90
16267;DHT22;8241;48.786;9.250;2023-01-06T04:12:42;10.50;99.90
16267;DHT22;8241;48.786;9.250;2023-01-06T04:15:15;10.50;99.90
16267;DHT22;8241;48.786;9.250;2023-01-06T04:17:45;10.30;99.90
16267;DHT22;8241;48.786;9.250;2023-01-06T04:20:16;10.30;99.90
16267;DHT22;8241;48.786;9.250;2023-01-06T04:22:45;10.40;99.90
16267;DHT22;8241;48.786;9.250;2023-01-06T04:25:12;10.30;99.90
16267;DHT22;8241;48.786;9.250;2023-01-06T04:27:40;10.20;99.90
16267;DHT22;8241;48.786;9.250;2023-01-06T04:30:15;10.30;99.90
16267;DHT22;8241;48.786;9.250;2023-01-06T04:32:42;10.10;99.90
16267;DHT22;8241;48.786;9.250;2023-01-06T04:35:09;10.20;99.90
16267;DHT22;8241;48.786;9.250;2023-01-06T04:37:37;10.20;99.90
16267;DHT22;8241;48.786;9.250;2023-01-06T04:40:07;10.10;99.90
16267;DHT22;8241;48.786;9.250;2023-01-06T04:42:42;9.90;99.90
16267;DHT22;8241;48.786;9.250;2023-01-06T04:45:26;9.80;99.90
16267;DHT22;8241;48.786;9.250;2023-01-06T04:47:53;10.10;99.90
16267;DHT22;8241;48.786;9.250;2023-01-06T04:50:20;10.20;99.90
16267;DHT22;8241;48.786;9.250;2023-01-06T04:52:59;10.20;99.90
16267;DHT22;8241;48.786;9.250;2023-01-06T04:55:28;10.30;99.90
16267;DHT22;8241;48.786;9.250;2023-01-06T04:57:55;10.20;99.90
16267;DHT22;8241;48.786;9.250;2023-01-06T05:00:22;10.10;99.90
16267;DHT22;8241;48.786;9.250;2023-01-06T05:02:59;10.10;99.90
16267;DHT22;8241;48.786;9.250;2023-01-06T05:05:26;10.10;99.90
16267;DHT22;8241;48.786;9.250;2023-01-06T05:07:53;10.10;99.90
16267;DHT22;8241;48.786;9.250;2023-01-06T05:10:21;10.00;99.90
16267;DHT22;8241;48.786;9.250;2023-01-06T05:12:50;9.90;99.90
16267;DHT22;8241;48.786;9.250;2023-01-06T05:15:16;9.90;99.90
16267;DHT22;8241;48.786;9.250;2023-01-06T05:17:43;9.90;99.90
16267;DHT22;8241;48.786;9.250;2023-01-06T05:20:17;9.90;99.90
16267;DHT22;8241;48.786;9.250;2023-01-06T05:22:44;10.10;99.90
16267;DHT22;8241;48.786;9.250;2023-01-06T05:25:11;10.20;99.90
16267;DHT22;8241;48.786;9.250;2023-01-06T05:27:38;10.00;99.90
16267;DHT22;8241;48.786;9.250;2023-01-06T05:30:09;9.80;99.90
16267;DHT22;8241;48.786;9.250;2023-01-06T05:32:36;9.70;99.90
16267;DHT22;8241;48.786;9.250;2023-01-06T05:35:04;9.80;99.90
16267;DHT22;8241;48.786;9.250;2023-01-06T05:37:31;9.90;99.90
16267;DHT22;8241;48.786;9.250;2023-01-06T05:39:57;9.80;99.90
16267;DHT22;8241;48.786;9.250;2023-01-06T05:42:24;9.80;99.90
16267;DHT22;8241;48.786;9.250;2023-01-06T05:44:52;9.80;99.90
16267;DHT22;8241;48.786;9.250;2023-01-06T05:47:20;9.90;99.90
16267;DHT22;8241;48.786;9.250;2023-01-06T05:49:47;9.80;99.90
16267;DHT22;8241;48.786;9.250;2023-01-06T05:52:14;9.60;99.90
16267;DHT22;8241;48.786;9.250;2023-01-06T05:54:40;9.70;99.90
16267;DHT22;8241;48.786;9.250;2023-01-06T05:57:07;9.70;99.90
16267;DHT22;8241;48.786;9.250;2023-01-06T05:59:36;9.90;99.90
16267;DHT22;8241;48.786;9.250;2023-01-06T06:02:06;9.70;99.90
16267;DHT22;8241;48.786;9.250;2023-01-06T06:04:34;9.60;99.90
16267;DHT22;8241;48.786;9.250;2023-01-06T06:07:07;9.60;99.90
16267;DHT22;8241;48.786;9.250;2023-01-06T06:09:34;9.50;99.90
16267;DHT22;8241;48.786;9.250;2023-01-06T06:12:01;9.60;99.90
16267;DHT22;8241;48.786;9.250;2023-01-06T06:14:28;9.50;99.90
16267;DHT22;8241;48.786;9.250;2023-01-06T06:16:55;9.50;99.90
16267;DHT22;8241;48.786;9.250;2023-01-06T06:19:22;9.70;99.90
16267;DHT22;8241;48.786;9.250;2023-01-06T06:21:51;9.80;99.90
16267;DHT22;8241;48.786;9.250;2023-01-06T06:24:18;9.70;99.90
16267;DHT22;8241;48.786;9.250;2023-01-06T06:26:45;9.60;99.90
16267;DHT22;8241;48.786;9.250;2023-01-06T06:29:12;9.50;99.90
16267;DHT22;8241;48.786;9.250;2023-01-06T06:31:45;9.70;99.90
16267;DHT22;8241;48.786;9.250;2023-01-06T06:34:12;9.70;99.90
16267;DHT22;8241;48.786;9.250;2023-01-06T06:36:39;9.70;99.90
16267;DHT22;8241;48.786;9.250;2023-01-06T06:39:07;9.90;99.90
16267;DHT22;8241;48.786;9.250;2023-01-06T06:41:34;9.80;99.90
16267;DHT22;8241;48.786;9.250;2023-01-06T06:44:05;9.70;99.90
16267;DHT22;8241;48.786;9.250;2023-01-06T06:46:32;9.90;99.90
16267;DHT22;8241;48.786;9.250;2023-01-06T06:49:04;9.90;99.90
16267;DHT22;8241;48.786;9.250;2023-01-06T06:51:31;9.90;99.90
16267;DHT22;8241;48.786;9.250;2023-01-06T06:53:58;10.00;99.90
16267;DHT22;8241;48.786;9.250;2023-01-06T06:56:26;9.90;99.90
16267;DHT22;8241;48.786;9.250;2023-01-06T06:58:55;10.00;99.90
16267;DHT22;8241;48.786;9.250;2023-01-06T07:01:33;10.00;99.90
16267;DHT22;8241;48.786;9.250;2023-01-06T07:04:07;10.10;99.90
16267;DHT22;8241;48.786;9.250;2023-01-06T07:07:10;10.10;99.90
16267;DHT22;8241;48.786;9.250;2023-01-06T07:09:38;9.90;99.90
16267;DHT22;8241;48.786;9.250;2023-01-06T07:12:19;10.00;99.90
16267;DHT22;8241;48.786;9.250;2023-01-06T07:14:46;10.00;99.90
16267;DHT22;8241;48.786;9.250;2023-01-06T07:17:12;10.00;99.90
16267;DHT22;8241;48.786;9.250;2023-01-06T07:19:40;10.10;99.90
16267;DHT22;8241;48.786;9.250;2023-01-06T07:25:19;10.10;99.90
16267;DHT22;8241;48.786;9.250;2023-01-06T07:27:52;10.10;99.90
16267;DHT22;8241;48.786;9.250;2023-01-06T07:30:19;10.20;99.90
16267;DHT22;8241;48.786;9.250;2023-01-06T07:32:46;10.20;99.90
16267;DHT22;8241;48.786;9.250;2023-01-06T07:35:18;10.20;99.90
16267;DHT22;8241;48.786;9.250;2023-01-06T07:38:01;10.20;99.90
16267;DHT22;8241;48.786;9.250;2023-01-06T07:40:36;10.20;99.90
16267;DHT22;8241;48.786;9.250;2023-01-06T07:43:12;10.20;99.90
16267;DHT22;8241;48.786;9.250;2023-01-06T07:45:41;10.30;99.90
16267;DHT22;8241;48.786;9.250;2023-01-06T07:48:08;10.30;99.90
16267;DHT22;8241;48.786;9.250;2023-01-06T07:50:44;10.30;99.90
16267;DHT22;8241;48.786;9.250;2023-01-06T07:53:11;10.30;99.90
16267;DHT22;8241;48.786;9.250;2023-01-06T07:55:38;10.30;99.90
16267;DHT22;8241;48.786;9.250;2023-01-06T07:58:14;10.30;99.90
16267;DHT22;8241;48.786;9.250;2023-01-06T08:00:51;10.30;99.90
16267;DHT22;8241;48.786;9.250;2023-01-06T08:03:18;10.30;99.90
16267;DHT22;8241;48.786;9.250;2023-01-06T08:05:48;10.30;99.90
16267;DHT22;8241;48.786;9.250;2023-01-06T08:08:18;10.30;99.90
16267;DHT22;8241;48.786;9.250;2023-01-06T08:10:44;10.30;99.90
16267;DHT22;8241;48.786;9.250;2023-01-06T08:13:50;10.30;99.90
16267;DHT22;8241;48.786;9.250;2023-01-06T08:16:26;10.20;99.90
16267;DHT22;8241;48.786;9.250;2023-01-06T08:18:52;10.30;99.90
16267;DHT22;8241;48.786;9.250;2023-01-06T08:21:19;10.30;99.90
16267;DHT22;8241;48.786;9.250;2023-01-06T08:23:46;10.20;99.90
16267;DHT22;8241;48.786;9.250;2023-01-06T08:26:15;10.20;99.90
16267;DHT22;8241;48.786;9.250;2023-01-06T08:28:43;10.20;99.90
16267;DHT22;8241;48.786;9.250;2023-01-06T08:31:13;10.20;99.90
16267;DHT22;8241;48.786;9.250;2023-01-06T08:33:41;10.20;99.90
16267;DHT22;8241;48.786;9.250;2023-01-06T08:36:15;10.20;99.90
16267;DHT22;8241;48.786;9.250;2023-01-06T08:38:42;10.30;99.90
16267;DHT22;8241;48.786;9.250;2023-01-06T08:41:10;10.30;99.90
16267;DHT22;8241;48.786;9.250;2023-01-06T08:43:58;10.20;99.90
16267;DHT22;8241;48.786;9.250;2023-01-06T08:46:30;10.20;99.90
16267;DHT22;8241;48.786;9.250;2023-01-06T08:48:58;10.20;99.90
16267;DHT22;8241;48.786;9.250;2023-01-06T08:51:26;10.20;99.90
16267;DHT22;8241;48.786;9.250;2023-01-06T08:53:54;10.30;99.90
16267;DHT22;8241;48.786;9.250;2023-01-06T08:56:22;10.30;99.90
16267;DHT22;8241;48.786;9.250;2023-01-06T08:58:50;10.30;99.90
16267;DHT22;8241;48.786;9.250;2023-01-06T09:01:22;10.30;99.90
16267;DHT22;8241;48.786;9.250;2023-01-06T09:06:43;10.40;99.90
16267;DHT22;8241;48.786;9.250;2023-01-06T09:09:27;10.30;99.90
16267;DHT22;8241;48.786;9.250;2023-01-06T09:11:53;10.30;99.90
16267;DHT22;8241;48.786;9.250;2023-01-06T09:14:20;10.30;99.90
16267;DHT22;8241;48.786;9.250;2023-01-06T09:16:47;10.30;99.90
16267;DHT22;8241;48.786;9.250;2023-01-06T09:19:14;10.40;99.90
16267;DHT22;8241;48.786;9.250;2023-01-06T09:21:45;10.30;99.90
16267;DHT22;8241;48.786;9.250;2023-01-06T09:24:12;10.40;99.90
16267;DHT22;8241;48.786;9.250;2023-01-06T09:26:42;10.50;99.90
16267;DHT22;8241;48.786;9.250;2023-01-06T09:29:09;10.60;99.90
16267;DHT22;8241;48.786;9.250;2023-01-06T09:31:36;10.50;99.90
16267;DHT22;8241;48.786;9.250;2023-01-06T09:34:03;10.70;99.90
16267;DHT22;8241;48.786;9.250;2023-01-06T09:36:30;10.80;99.90
16267;DHT22;8241;48.786;9.250;2023-01-06T09:39:26;10.80;99.90
16267;DHT22;8241;48.786;9.250;2023-01-06T09:45:04;11.00;99.90
16267;DHT22;8241;48.786;9.250;2023-01-06T09:47:43;10.90;99.90
16267;DHT22;8241;48.786;9.250;2023-01-06T09:50:30;10.80;99.90
16267;DHT22;8241;48.786;9.250;2023-01-06T09:53:10;10.80;99.90
16267;DHT22;8241;48.786;9.250;2023-01-06T09:55:52;10.80;99.90
16267;DHT22;8241;48.786;9.250;2023-01-06T09:58:27;10.80;99.90
16267;DHT22;8241;48.786;9.250;2023-01-06T10:01:11;10.80;99.90
16267;DHT22;8241;48.786;9.250;2023-01-06T10:03:46;11.00;99.90
16267;DHT22;8241;48.786;9.250;2023-01-06T10:06:24;11.10;99.90
16267;DHT22;8241;48.786;9.250;2023-01-06T10:09:00;11.20;99.90
16267;DHT22;8241;48.786;9.250;2023-01-06T10:11:44;11.30;99.90
16267;DHT22;8241;48.786;9.250;2023-01-06T10:14:19;11.20;99.90
16267;DHT22;8241;48.786;9.250;2023-01-06T10:17:04;11.20;99.90
16267;DHT22;8241;48.786;9.250;2023-01-06T10:19:46;11.40;99.90
16267;DHT22;8241;48.786;9.250;2023-01-06T10:22:23;11.30;99.90
16267;DHT22;8241;48.786;9.250;2023-01-06T10:24:55;11.20;99.90
16267;DHT22;8241;48.786;9.250;2023-01-06T10:27:35;11.10;99.90
16267;DHT22;8241;48.786;9.250;2023-01-06T10:30:06;11.30;99.90
16267;DHT22;8241;48.786;9.250;2023-01-06T10:32:39;11.30;99.90
16267;DHT22;8241;48.786;9.250;2023-01-06T10:35:11;11.20;99.90
16267;DHT22;8241;48.786;9.250;2023-01-06T10:37:40;11.30;99.90
16267;DHT22;8241;48.786;9.250;2023-01-06T10:40:17;11.20;99.90
16267;DHT22;8241;48.786;9.250;2023-01-06T10:42:58;11.30;99.90
16267;DHT22;8241;48.786;9.250;2023-01-06T10:45:35;11.30;99.90
16267;DHT22;8241;48.786;9.250;2023-01-06T10:48:09;11.40;99.90
16267;DHT22;8241;48.786;9.250;2023-01-06T10:50:42;11.40;99.90
16267;DHT22;8241;48.786;9.250;2023-01-06T10:53:14;11.40;99.90
16267;DHT22;8241;48.786;9.250;2023-01-06T10:55:45;11.30;99.90
16267;DHT22;8241;48.786;9.250;2023-01-06T10:58:23;11.30;99.90
16267;DHT22;8241;48.786;9.250;2023-01-06T11:01:10;11.30;99.90
16267;DHT22;8241;48.786;9.250;2023-01-06T11:04:03;11.30;99.90
16267;DHT22;8241;48.786;9.250;2023-01-06T11:06:49;11.30;99.90
16267;DHT22;8241;48.786;9.250;2023-01-06T11:09:27;11.50;99.90
16267;DHT22;8241;48.786;9.250;2023-01-06T11:11:56;11.50;99.90
16267;DHT22;8241;48.786;9.250;2023-01-06T11:14:29;11.60;99.90
16267;DHT22;8241;48.786;9.250;2023-01-06T11:16:59;11.70;99.90
16267;DHT22;8241;48.786;9.250;2023-01-06T11:19:35;11.70;99.90
16267;DHT22;8241;48.786;9.250;2023-01-06T11:22:35;11.70;99.90
16267;DHT22;8241;48.786;9.250;2023-01-06T11:25:11;11.50;99.90
16267;DHT22;8241;48.786;9.250;2023-01-06T11:27:48;11.60;99.90
16267;DHT22;8241;48.786;9.250;2023-01-06T11:30:39;11.50;99.90
16267;DHT22;8241;48.786;9.250;2023-01-06T11:33:14;11.70;99.90
16267;DHT22;8241;48.786;9.250;2023-01-06T11:35:56;11.50;99.90
16267;DHT22;8241;48.786;9.250;2023-01-06T11:38:23;11.40;99.90
16267;DHT22;8241;48.786;9.250;2023-01-06T11:41:07;11.40;99.90
16267;DHT22;8241;48.786;9.250;2023-01-06T11:43:35;11.40;99.90
16267;DHT22;8241;48.786;9.250;2023-01-06T11:46:06;11.50;99.90
16267;DHT22;8241;48.786;9.250;2023-01-06T11:48:36;11.50;99.90
16267;DHT22;8241;48.786;9.250;2023-01-06T11:51:07;11.50;99.90
16267;DHT22;8241;48.786;9.250;2023-01-06T11:53:39;11.50;99.90
16267;DHT22;8241;48.786;9.250;2023-01-06T11:56:16;11.60;99.90
16267;DHT22;8241;48.786;9.250;2023-01-06T11:59:01;11.80;99.90
16267;DHT22;8241;48.786;9.250;2023-01-06T12:01:37;11.80;99.90
16267;DHT22;8241;48.786;9.250;2023-01-06T12:04:12;11.80;99.90
16267;DHT22;8241;48.786;9.250;2023-01-06T12:09:37;12.00;99.90
16267;DHT22;8241;48.786;9.250;2023-01-06T12:12:06;12.00;99.90
16267;DHT22;8241;48.786;9.250;2023-01-06T12:14:37;11.90;99.90
16267;DHT22;8241;48.786;9.250;2023-01-06T12:17:10;12.00;99.90
16267;DHT22;8241;48.786;9.250;2023-01-06T12:19:41;12.00;99.90
16267;DHT22;8241;48.786;9.250;2023-01-06T12:22:22;12.00;99.90
16267;DHT22;8241;48.786;9.250;2023-01-06T12:24:55;12.00;99.90
16267;DHT22;8241;48.786;9.250;2023-01-06T12:27:34;12.00;99.90
16267;DHT22;8241;48.786;9.250;2023-01-06T12:30:10;11.90;99.90
16267;DHT22;8241;48.786;9.250;2023-01-06T12:32:44;12.00;99.90
16267;DHT22;8241;48.786;9.250;2023-01-06T12:35:39;12.00;99.90
16267;DHT22;8241;48.786;9.250;2023-01-06T12:38:20;12.00;99.90
16267;DHT22;8241;48.786;9.250;2023-01-06T12:40:57;11.90;99.90
16267;DHT22;8241;48.786;9.250;2023-01-06T12:43:28;11.90;99.90
16267;DHT22;8241;48.786;9.250;2023-01-06T12:46:01;11.80;99.90
16267;DHT22;8241;48.786;9.250;2023-01-06T12:48:37;11.90;99.90
16267;DHT22;8241;48.786;9.250;2023-01-06T12:51:15;12.00;99.90
16267;DHT22;8241;48.786;9.250;2023-01-06T12:53:46;12.00;99.90
16267;DHT22;8241;48.786;9.250;2023-01-06T12:56:29;11.80;99.90
16267;DHT22;8241;48.786;9.250;2023-01-06T12:59:09;11.80;99.90
16267;DHT22;8241;48.786;9.250;2023-01-06T13:01:58;11.80;99.90
16267;DHT22;8241;48.786;9.250;2023-01-06T13:04:47;11.70;99.90
16267;DHT22;8241;48.786;9.250;2023-01-06T13:07:30;11.70;99.90
16267;DHT22;8241;48.786;9.250;2023-01-06T13:10:07;11.60;99.90
16267;DHT22;8241;48.786;9.250;2023-01-06T13:13:00;11.60;99.90
16267;DHT22;8241;48.786;9.250;2023-01-06T13:15:43;11.60;99.90
16267;DHT22;8241;48.786;9.250;2023-01-06T13:18:20;11.70;99.90
16267;DHT22;8241;48.786;9.250;2023-01-06T13:20:54;11.70;99.90
16267;DHT22;8241;48.786;9.250;2023-01-06T13:23:44;11.70;99.90
16267;DHT22;8241;48.786;9.250;2023-01-06T13:26:36;11.60;99.90
16267;DHT22;8241;48.786;9.250;2023-01-06T13:29:13;11.60;99.90
16267;DHT22;8241;48.786;9.250;2023-01-06T13:37:54;11.70;99.90
16267;DHT22;8241;48.786;9.250;2023-01-06T13:40:23;11.70;99.90
16267;DHT22;8241;48.786;9.250;2023-01-06T13:43:01;11.70;99.90
16267;DHT22;8241;48.786;9.250;2023-01-06T13:45:31;11.70;99.90
16267;DHT22;8241;48.786;9.250;2023-01-06T13:47:59;11.70;99.90
16267;DHT22;8241;48.786;9.250;2023-01-06T13:50:34;11.80;99.90
16267;DHT22;8241;48.786;9.250;2023-01-06T13:53:04;11.90;99.90
16267;DHT22;8241;48.786;9.250;2023-01-06T13:55:32;11.90;99.90
16267;DHT22;8241;48.786;9.250;2023-01-06T14:01:29;12.00;99.90
16267;DHT22;8241;48.786;9.250;2023-01-06T14:04:44;12.10;99.90
16267;DHT22;8241;48.786;9.250;2023-01-06T14:07:11;12.00;99.90
16267;DHT22;8241;48.786;9.250;2023-01-06T14:09:47;11.90;99.90
16267;DHT22;8241;48.786;9.250;2023-01-06T14:12:18;11.80;99.90
16267;DHT22;8241;48.786;9.250;2023-01-06T14:14:58;12.00;99.90
16267;DHT22;8241;48.786;9.250;2023-01-06T14:17:46;12.10;99.90
16267;DHT22;8241;48.786;9.250;2023-01-06T14:20:25;12.10;99.90
16267;DHT22;8241;48.786;9.250;2023-01-06T14:23:01;12.10;99.90
16267;DHT22;8241;48.786;9.250;2023-01-06T14:25:32;12.10;99.90
16267;DHT22;8241;48.786;9.250;2023-01-06T14:28:24;12.00;99.90
16267;DHT22;8241;48.786;9.250;2023-01-06T14:33:34;11.90;99.90
16267;DHT22;8241;48.786;9.250;2023-01-06T14:36:05;11.80;99.90
16267;DHT22;8241;48.786;9.250;2023-01-06T14:38:40;11.80;99.90
16267;DHT22;8241;48.786;9.250;2023-01-06T14:41:18;11.80;99.90
16267;DHT22;8241;48.786;9.250;2023-01-06T14:43:53;11.80;99.90
16267;DHT22;8241;48.786;9.250;2023-01-06T14:46:24;11.70;99.90
16267;DHT22;8241;48.786;9.250;2023-01-06T14:48:55;11.60;99.90
16267;DHT22;8241;48.786;9.250;2023-01-06T14:51:23;11.60;99.90
16267;DHT22;8241;48.786;9.250;2023-01-06T14:54:11;11.60;99.90
16267;DHT22;8241;48.786;9.250;2023-01-06T14:56:51;11.60;99.90
16267;DHT22;8241;48.786;9.250;2023-01-06T14:59:18;11.50;99.90
16267;DHT22;8241;48.786;9.250;2023-01-06T15:01:55;11.50;99.90
16267;DHT22;8241;48.786;9.250;2023-01-06T15:04:26;11.40;99.90
16267;DHT22;8241;48.786;9.250;2023-01-06T15:07:02;11.50;99.90
16267;DHT22;8241;48.786;9.250;2023-01-06T15:09:31;11.50;99.90
16267;DHT22;8241;48.786;9.250;2023-01-06T15:12:01;11.40;99.90
16267;DHT22;8241;48.786;9.250;2023-01-06T15:14:30;11.40;99.90
16267;DHT22;8241;48.786;9.250;2023-01-06T15:17:00;11.40;99.90
16267;DHT22;8241;48.786;9.250;2023-01-06T15:19:28;11.30;99.90
16267;DHT22;8241;48.786;9.250;2023-01-06T15:21:56;11.30;99.90
16267;DHT22;8241;48.786;9.250;2023-01-06T15:24:26;11.30;99.90
16267;DHT22;8241;48.786;9.250;2023-01-06T15:27:05;11.30;99.90
16267;DHT22;8241;48.786;9.250;2023-01-06T15:29:33;11.30;99.90
16267;DHT22;8241;48.786;9.250;2023-01-06T15:32:01;11.30;99.90
16267;DHT22;8241;48.786;9.250;2023-01-06T15:34:32;11.30;99.90
16267;DHT22;8241;48.786;9.250;2023-01-06T15:37:00;11.30;99.90
16267;DHT22;8241;48.786;9.250;2023-01-06T15:39:29;11.20;99.90
16267;DHT22;8241;48.786;9.250;2023-01-06T15:42:06;11.30;99.90
16267;DHT22;8241;48.786;9.250;2023-01-06T15:44:35;11.20;99.90
16267;DHT22;8241;48.786;9.250;2023-01-06T15:47:14;11.20;99.90
16267;DHT22;8241;48.786;9.250;2023-01-06T15:49:49;11.20;99.90
16267;DHT22;8241;48.786;9.250;2023-01-06T15:52:23;11.20;99.90
16267;DHT22;8241;48.786;9.250;2023-01-06T15:55:03;11.20;99.90
16267;DHT22;8241;48.786;9.250;2023-01-06T15:57:35;11.10;99.90
16267;DHT22;8241;48.786;9.250;2023-01-06T16:00:07;11.10;99.90
16267;DHT22;8241;48.786;9.250;2023-01-06T16:02:48;11.20;99.90
16267;DHT22;8241;48.786;9.250;2023-01-06T16:05:38;11.20;99.90
16267;DHT22;8241;48.786;9.250;2023-01-06T16:08:15;11.20;99.90
16267;DHT22;8241;48.786;9.250;2023-01-06T16:10:43;11.20;99.90
16267;DHT22;8241;48.786;9.250;2023-01-06T16:13:22;11.20;99.90
16267;DHT22;8241;48.786;9.250;2023-01-06T16:15:52;11.30;99.90
16267;DHT22;8241;48.786;9.250;2023-01-06T16:18:29;11.40;99.90
16267;DHT22;8241;48.786;9.250;2023-01-06T16:20:57;11.50;99.90
16267;DHT22;8241;48.786;9.250;2023-01-06T16:23:31;11.60;99.90
16267;DHT22;8241;48.786;9.250;2023-01-06T16:26:04;11.70;99.90
16267;DHT22;8241;48.786;9.250;2023-01-06T16:28:33;11.60;99.90
16267;DHT22;8241;48.786;9.250;2023-01-06T16:31:06;11.50;99.90
16267;DHT22;8241;48.786;9.250;2023-01-06T16:33:36;11.40;99.90
16267;DHT22;8241;48.786;9.250;2023-01-06T16:36:10;11.30;99.90
16267;DHT22;8241;48.786;9.250;2023-01-06T16:38:38;11.30;99.90
16267;DHT22;8241;48.786;9.250;2023-01-06T16:41:14;11.40;99.90
16267;DHT22;8241;48.786;9.250;2023-01-06T16:43:52;11.40;99.90
16267;DHT22;8241;48.786;9.250;2023-01-06T16:46:20;11.40;99.90
16267;DHT22;8241;48.786;9.250;2023-01-06T16:48:54;11.40;99.90
16267;DHT22;8241;48.786;9.250;2023-01-06T16:51:57;11.40;99.90
16267;DHT22;8241;48.786;9.250;2023-01-06T16:54:28;11.40;99.90